“A tour of Claife Heights”

This is lovely 18 mile route starting from Ambleside, and touring Claife Heights before returning via Latterbarrow, Outgate and (as is sometimes the case on a Tuesday night) The Drunken Duck. I didn’t design this route so I can’t take any credit for it.
I think the hardest part is the climb up from Belle Grange to Long Height, where you cross your earlier tracks. At this point there is more climbing, sedate at first and then a very short carry to Latterbarrow.
————————————————————————
<?xml version="1.0" encoding="UTF-8" standalone="yes"?>
<gpx version="1.1" creator="GPS Utility 4.20 – http://www.gpsu.co.uk&#34;
xmlns="http://www.topografix.com/GPX/1/1&#34;
xmlns:xsi="http://www.w3.org/2001/XMLSchema-instance&#34;
xsi:schemaLocation="http://www.topografix.com/GPX/1/1 http://www.topografix.com/GPX/1/1/gpx.xsd"&#62;

<trk>
<trkseg>
<trkpt lat="54.433950" lon="-2.964067"><ele>58</ele><time>2009-09-15T17:22:39Z</time></trkpt>
<trkpt lat="54.433633" lon="-2.963550"><ele>70</ele><time>2009-09-15T17:24:47Z</time></trkpt>
<trkpt lat="54.433200" lon="-2.963817"><ele>66</ele><time>2009-09-15T17:26:16Z</time></trkpt>
<trkpt lat="54.432600" lon="-2.963233"><ele>58</ele><time>2009-09-15T17:39:20Z</time></trkpt>
<trkpt lat="54.431833" lon="-2.964200"><ele>58</ele><time>2009-09-15T17:39:47Z</time></trkpt>
<trkpt lat="54.431100" lon="-2.966033"><ele>56</ele><time>2009-09-15T17:40:11Z</time></trkpt>
<trkpt lat="54.431300" lon="-2.967967"><ele>55</ele><time>2009-09-15T17:40:38Z</time></trkpt>
<trkpt lat="54.431900" lon="-2.970450"><ele>56</ele><time>2009-09-15T17:41:11Z</time></trkpt>
<trkpt lat="54.429733" lon="-2.970850"><ele>57</ele><time>2009-09-15T17:42:04Z</time></trkpt>
<trkpt lat="54.428533" lon="-2.970933"><ele>51</ele><time>2009-09-15T17:42:31Z</time></trkpt>
<trkpt lat="54.427450" lon="-2.971267"><ele>55</ele><time>2009-09-15T17:42:55Z</time></trkpt>
<trkpt lat="54.426817" lon="-2.969767"><ele>27</ele><time>2009-09-15T17:43:24Z</time></trkpt>
<trkpt lat="54.425767" lon="-2.970383"><ele>29</ele><time>2009-09-15T17:43:46Z</time></trkpt>
<trkpt lat="54.424500" lon="-2.972083"><ele>63</ele><time>2009-09-15T17:44:20Z</time></trkpt>
<trkpt lat="54.423800" lon="-2.975183"><ele>54</ele><time>2009-09-15T17:44:59Z</time></trkpt>
<trkpt lat="54.423350" lon="-2.977067"><ele>55</ele><time>2009-09-15T17:45:25Z</time></trkpt>
<trkpt lat="54.421617" lon="-2.978100"><ele>44</ele><time>2009-09-15T17:45:53Z</time></trkpt>
<trkpt lat="54.421417" lon="-2.979567"><ele>29</ele><time>2009-09-15T17:46:09Z</time></trkpt>
<trkpt lat="54.420283" lon="-2.981533"><ele>32</ele><time>2009-09-15T17:46:42Z</time></trkpt>
<trkpt lat="54.419500" lon="-2.982617"><ele>37</ele><time>2009-09-15T17:47:03Z</time></trkpt>
<trkpt lat="54.416017" lon="-2.983317"><ele>26</ele><time>2009-09-15T17:48:26Z</time></trkpt>
<trkpt lat="54.414550" lon="-2.984217"><ele>25</ele><time>2009-09-15T17:48:48Z</time></trkpt>
<trkpt lat="54.413250" lon="-2.984467"><ele>40</ele><time>2009-09-15T17:49:08Z</time></trkpt>
<trkpt lat="54.412133" lon="-2.985717"><ele>31</ele><time>2009-09-15T17:49:27Z</time></trkpt>
<trkpt lat="54.411100" lon="-2.988383"><ele>51</ele><time>2009-09-15T17:49:51Z</time></trkpt>
<trkpt lat="54.409800" lon="-2.987733"><ele>56</ele><time>2009-09-15T17:50:10Z</time></trkpt>
<trkpt lat="54.407117" lon="-2.982967"><ele>39</ele><time>2009-09-15T17:51:31Z</time></trkpt>
<trkpt lat="54.405200" lon="-2.981067"><ele>18</ele><time>2009-09-15T17:52:06Z</time></trkpt>
<trkpt lat="54.403967" lon="-2.979300"><ele>0</ele><time>2009-09-15T17:52:28Z</time></trkpt>
<trkpt lat="54.402550" lon="-2.978817"><ele>6</ele><time>2009-09-15T17:52:47Z</time></trkpt>
<trkpt lat="54.401883" lon="-2.976833"><ele>20</ele><time>2009-09-15T17:53:12Z</time></trkpt>
<trkpt lat="54.401217" lon="-2.975250"><ele>28</ele><time>2009-09-15T17:53:38Z</time></trkpt>
<trkpt lat="54.400350" lon="-2.973733"><ele>26</ele><time>2009-09-15T17:54:02Z</time></trkpt>
<trkpt lat="54.400550" lon="-2.971250"><ele>25</ele><time>2009-09-15T17:54:24Z</time></trkpt>
<trkpt lat="54.399467" lon="-2.970433"><ele>39</ele><time>2009-09-15T17:54:52Z</time></trkpt>
<trkpt lat="54.398617" lon="-2.970067"><ele>47</ele><time>2009-09-15T17:55:24Z</time></trkpt>
<trkpt lat="54.397750" lon="-2.969933"><ele>43</ele><time>2009-09-15T17:55:55Z</time></trkpt>
<trkpt lat="54.396700" lon="-2.969983"><ele>38</ele><time>2009-09-15T17:56:18Z</time></trkpt>
<trkpt lat="54.395250" lon="-2.969933"><ele>37</ele><time>2009-09-15T17:56:37Z</time></trkpt>
<trkpt lat="54.394367" lon="-2.968367"><ele>42</ele><time>2009-09-15T17:57:06Z</time></trkpt>
<trkpt lat="54.393233" lon="-2.967017"><ele>46</ele><time>2009-09-15T17:57:53Z</time></trkpt>
<trkpt lat="54.392267" lon="-2.966400"><ele>59</ele><time>2009-09-15T17:58:29Z</time></trkpt>
<trkpt lat="54.391183" lon="-2.967617"><ele>59</ele><time>2009-09-15T17:59:06Z</time></trkpt>
<trkpt lat="54.390517" lon="-2.968217"><ele>73</ele><time>2009-09-15T17:59:45Z</time></trkpt>
<trkpt lat="54.389667" lon="-2.968333"><ele>82</ele><time>2009-09-15T18:00:32Z</time></trkpt>
<trkpt lat="54.388867" lon="-2.968733"><ele>97</ele><time>2009-09-15T18:01:18Z</time></trkpt>
<trkpt lat="54.388267" lon="-2.969533"><ele>105</ele><time>2009-09-15T18:01:51Z</time></trkpt>
<trkpt lat="54.387333" lon="-2.969133"><ele>97</ele><time>2009-09-15T18:02:39Z</time></trkpt>
<trkpt lat="54.386783" lon="-2.968217"><ele>117</ele><time>2009-09-15T18:04:33Z</time></trkpt>
<trkpt lat="54.386150" lon="-2.967917"><ele>120</ele><time>2009-09-15T18:05:25Z</time></trkpt>
<trkpt lat="54.385850" lon="-2.966983"><ele>107</ele><time>2009-09-15T18:05:53Z</time></trkpt>
<trkpt lat="54.385400" lon="-2.965633"><ele>80</ele><time>2009-09-15T18:06:26Z</time></trkpt>
<trkpt lat="54.384500" lon="-2.964517"><ele>101</ele><time>2009-09-15T18:08:20Z</time></trkpt>
<trkpt lat="54.383983" lon="-2.963717"><ele>137</ele><time>2009-09-15T18:09:19Z</time></trkpt>
<trkpt lat="54.383183" lon="-2.962467"><ele>151</ele><time>2009-09-15T18:09:48Z</time></trkpt>
<trkpt lat="54.382533" lon="-2.960450"><ele>156</ele><time>2009-09-15T18:10:22Z</time></trkpt>
<trkpt lat="54.381983" lon="-2.959417"><ele>160</ele><time>2009-09-15T18:10:48Z</time></trkpt>
<trkpt lat="54.380750" lon="-2.958217"><ele>166</ele><time>2009-09-15T18:11:32Z</time></trkpt>
<trkpt lat="54.379567" lon="-2.958483"><ele>172</ele><time>2009-09-15T18:11:58Z</time></trkpt>
<trkpt lat="54.379133" lon="-2.959083"><ele>176</ele><time>2009-09-15T18:12:26Z</time></trkpt>
<trkpt lat="54.378300" lon="-2.959900"><ele>188</ele><time>2009-09-15T18:13:14Z</time></trkpt>
<trkpt lat="54.377400" lon="-2.959983"><ele>191</ele><time>2009-09-15T18:13:58Z</time></trkpt>
<trkpt lat="54.376917" lon="-2.960083"><ele>236</ele><time>2009-09-15T18:16:32Z</time></trkpt>
<trkpt lat="54.376617" lon="-2.960767"><ele>257</ele><time>2009-09-15T18:18:38Z</time></trkpt>
<trkpt lat="54.376433" lon="-2.961233"><ele>322</ele><time>2009-09-15T18:20:22Z</time></trkpt>
<trkpt lat="54.376017" lon="-2.961750"><ele>303</ele><time>2009-09-15T18:21:32Z</time></trkpt>
<trkpt lat="54.374967" lon="-2.963283"><ele>292</ele><time>2009-09-15T18:22:37Z</time></trkpt>
<trkpt lat="54.372867" lon="-2.965017"><ele>295</ele><time>2009-09-15T18:23:12Z</time></trkpt>
<trkpt lat="54.372150" lon="-2.965517"><ele>224</ele><time>2009-09-15T18:24:08Z</time></trkpt>
<trkpt lat="54.370200" lon="-2.966733"><ele>203</ele><time>2009-09-15T18:24:41Z</time></trkpt>
<trkpt lat="54.369283" lon="-2.967767"><ele>200</ele><time>2009-09-15T18:25:04Z</time></trkpt>
<trkpt lat="54.368383" lon="-2.967733"><ele>205</ele><time>2009-09-15T18:25:29Z</time></trkpt>
<trkpt lat="54.367500" lon="-2.967333"><ele>207</ele><time>2009-09-15T18:25:56Z</time></trkpt>
<trkpt lat="54.366767" lon="-2.966283"><ele>200</ele><time>2009-09-15T18:26:16Z</time></trkpt>
<trkpt lat="54.365917" lon="-2.965633"><ele>198</ele><time>2009-09-15T18:26:36Z</time></trkpt>
<trkpt lat="54.364850" lon="-2.965567"><ele>189</ele><time>2009-09-15T18:26:53Z</time></trkpt>
<trkpt lat="54.363633" lon="-2.966400"><ele>170</ele><time>2009-09-15T18:27:16Z</time></trkpt>
<trkpt lat="54.362417" lon="-2.966650"><ele>163</ele><time>2009-09-15T18:27:37Z</time></trkpt>
<trkpt lat="54.360400" lon="-2.968400"><ele>154</ele><time>2009-09-15T18:28:12Z</time></trkpt>
<trkpt lat="54.358800" lon="-2.967300"><ele>136</ele><time>2009-09-15T18:28:34Z</time></trkpt>
<trkpt lat="54.357317" lon="-2.966533"><ele>136</ele><time>2009-09-15T18:28:56Z</time></trkpt>
<trkpt lat="54.355967" lon="-2.965200"><ele>130</ele><time>2009-09-15T18:30:16Z</time></trkpt>
<trkpt lat="54.355067" lon="-2.963283"><ele>127</ele><time>2009-09-15T18:30:46Z</time></trkpt>
<trkpt lat="54.353983" lon="-2.961583"><ele>139</ele><time>2009-09-15T18:31:10Z</time></trkpt>
<trkpt lat="54.353000" lon="-2.960033"><ele>134</ele><time>2009-09-15T18:31:30Z</time></trkpt>
<trkpt lat="54.351783" lon="-2.958900"><ele>127</ele><time>2009-09-15T18:32:15Z</time></trkpt>
<trkpt lat="54.350567" lon="-2.957200"><ele>129</ele><time>2009-09-15T18:32:56Z</time></trkpt>
<trkpt lat="54.351267" lon="-2.957200"><ele>124</ele><time>2009-09-15T18:33:26Z</time></trkpt>
<trkpt lat="54.352100" lon="-2.957833"><ele>130</ele><time>2009-09-15T18:34:18Z</time></trkpt>
<trkpt lat="54.352900" lon="-2.957800"><ele>148</ele><time>2009-09-15T18:35:11Z</time></trkpt>
<trkpt lat="54.353633" lon="-2.956633"><ele>153</ele><time>2009-09-15T18:36:20Z</time></trkpt>
<trkpt lat="54.354017" lon="-2.955500"><ele>162</ele><time>2009-09-15T18:37:03Z</time></trkpt>
<trkpt lat="54.354617" lon="-2.954400"><ele>174</ele><time>2009-09-15T18:37:54Z</time></trkpt>
<trkpt lat="54.355033" lon="-2.952650"><ele>174</ele><time>2009-09-15T18:38:45Z</time></trkpt>
<trkpt lat="54.355650" lon="-2.951683"><ele>175</ele><time>2009-09-15T18:39:53Z</time></trkpt>
<trkpt lat="54.356383" lon="-2.951017"><ele>172</ele><time>2009-09-15T18:40:24Z</time></trkpt>
<trkpt lat="54.357233" lon="-2.949567"><ele>154</ele><time>2009-09-15T18:41:33Z</time></trkpt>
<trkpt lat="54.357483" lon="-2.948817"><ele>128</ele><time>2009-09-15T18:42:40Z</time></trkpt>
<trkpt lat="54.357767" lon="-2.948100"><ele>128</ele><time>2009-09-15T18:43:03Z</time></trkpt>
<trkpt lat="54.358483" lon="-2.946950"><ele>110</ele><time>2009-09-15T18:43:30Z</time></trkpt>
<trkpt lat="54.359467" lon="-2.945983"><ele>88</ele><time>2009-09-15T18:43:55Z</time></trkpt>
<trkpt lat="54.360083" lon="-2.945517"><ele>83</ele><time>2009-09-15T18:44:12Z</time></trkpt>
<trkpt lat="54.360883" lon="-2.944700"><ele>63</ele><time>2009-09-15T18:44:41Z</time></trkpt>
<trkpt lat="54.362183" lon="-2.944317"><ele>56</ele><time>2009-09-15T18:45:29Z</time></trkpt>
<trkpt lat="54.363033" lon="-2.944467"><ele>56</ele><time>2009-09-15T18:46:18Z</time></trkpt>
<trkpt lat="54.364167" lon="-2.944317"><ele>56</ele><time>2009-09-15T18:46:40Z</time></trkpt>
<trkpt lat="54.364817" lon="-2.943967"><ele>37</ele><time>2009-09-15T18:47:01Z</time></trkpt>
<trkpt lat="54.365183" lon="-2.943900"><ele>37</ele><time>2009-09-15T18:48:07Z</time></trkpt>
<trkpt lat="54.366983" lon="-2.944317"><ele>9</ele><time>2009-09-15T18:59:30Z</time></trkpt>
<trkpt lat="54.368467" lon="-2.944367"><ele>5</ele><time>2009-09-15T19:00:11Z</time></trkpt>
<trkpt lat="54.369200" lon="-2.944317"><ele>10</ele><time>2009-09-15T19:00:34Z</time></trkpt>
<trkpt lat="54.370183" lon="-2.944033"><ele>19</ele><time>2009-09-15T19:00:57Z</time></trkpt>
<trkpt lat="54.371150" lon="-2.944700"><ele>27</ele><time>2009-09-15T19:01:28Z</time></trkpt>
<trkpt lat="54.371750" lon="-2.944717"><ele>39</ele><time>2009-09-15T19:01:59Z</time></trkpt>
<trkpt lat="54.374267" lon="-2.944433"><ele>45</ele><time>2009-09-15T19:02:50Z</time></trkpt>
<trkpt lat="54.375283" lon="-2.944717"><ele>44</ele><time>2009-09-15T19:03:05Z</time></trkpt>
<trkpt lat="54.378483" lon="-2.944517"><ele>49</ele><time>2009-09-15T19:04:03Z</time></trkpt>
<trkpt lat="54.380567" lon="-2.945000"><ele>37</ele><time>2009-09-15T19:04:37Z</time></trkpt>
<trkpt lat="54.381133" lon="-2.945283"><ele>37</ele><time>2009-09-15T19:04:59Z</time></trkpt>
<trkpt lat="54.381467" lon="-2.946150"><ele>0</ele><time>2009-09-15T19:05:35Z</time></trkpt>
<trkpt lat="54.381167" lon="-2.946883"><ele>24</ele><time>2009-09-15T19:07:02Z</time></trkpt>
<trkpt lat="54.381383" lon="-2.947717"><ele>62</ele><time>2009-09-15T19:09:17Z</time></trkpt>
<trkpt lat="54.381133" lon="-2.949150"><ele>35</ele><time>2009-09-15T19:10:38Z</time></trkpt>
<trkpt lat="54.381383" lon="-2.949983"><ele>0</ele><time>2009-09-15T19:11:37Z</time></trkpt>
<trkpt lat="54.381167" lon="-2.951933"><ele>0</ele><time>2009-09-15T19:12:52Z</time></trkpt>
<trkpt lat="54.380567" lon="-2.952733"><ele>0</ele><time>2009-09-15T19:13:32Z</time></trkpt>
<trkpt lat="54.380217" lon="-2.953650"><ele>0</ele><time>2009-09-15T19:14:27Z</time></trkpt>
<trkpt lat="54.379967" lon="-2.954350"><ele>130</ele><time>2009-09-15T19:16:37Z</time></trkpt>
<trkpt lat="54.379917" lon="-2.956683"><ele>168</ele><time>2009-09-15T19:21:46Z</time></trkpt>
<trkpt lat="54.379517" lon="-2.957933"><ele>178</ele><time>2009-09-15T19:22:16Z</time></trkpt>
<trkpt lat="54.379400" lon="-2.958717"><ele>187</ele><time>2009-09-15T19:23:08Z</time></trkpt>
<trkpt lat="54.379717" lon="-2.959650"><ele>193</ele><time>2009-09-15T19:24:50Z</time></trkpt>
<trkpt lat="54.379767" lon="-2.961067"><ele>185</ele><time>2009-09-15T19:27:18Z</time></trkpt>
<trkpt lat="54.379383" lon="-2.962500"><ele>179</ele><time>2009-09-15T19:28:08Z</time></trkpt>
<trkpt lat="54.379417" lon="-2.963317"><ele>205</ele><time>2009-09-15T19:30:34Z</time></trkpt>
<trkpt lat="54.379317" lon="-2.964833"><ele>209</ele><time>2009-09-15T19:31:31Z</time></trkpt>
<trkpt lat="54.378883" lon="-2.965533"><ele>211</ele><time>2009-09-15T19:32:02Z</time></trkpt>
<trkpt lat="54.379283" lon="-2.966483"><ele>203</ele><time>2009-09-15T19:32:47Z</time></trkpt>
<trkpt lat="54.380333" lon="-2.966950"><ele>198</ele><time>2009-09-15T19:33:30Z</time></trkpt>
<trkpt lat="54.380500" lon="-2.967550"><ele>216</ele><time>2009-09-15T19:34:31Z</time></trkpt>
<trkpt lat="54.381033" lon="-2.967500"><ele>212</ele><time>2009-09-15T19:35:34Z</time></trkpt>
<trkpt lat="54.380700" lon="-2.969667"><ele>219</ele><time>2009-09-15T19:36:35Z</time></trkpt>
<trkpt lat="54.380183" lon="-2.971650"><ele>215</ele><time>2009-09-15T19:37:17Z</time></trkpt>
<trkpt lat="54.381283" lon="-2.972383"><ele>205</ele><time>2009-09-15T19:37:54Z</time></trkpt>
<trkpt lat="54.381400" lon="-2.973150"><ele>195</ele><time>2009-09-15T19:38:44Z</time></trkpt>
<trkpt lat="54.381333" lon="-2.974167"><ele>191</ele><time>2009-09-15T19:39:48Z</time></trkpt>
<trkpt lat="54.380883" lon="-2.975750"><ele>186</ele><time>2009-09-15T19:40:50Z</time></trkpt>
<trkpt lat="54.381283" lon="-2.976000"><ele>209</ele><time>2009-09-15T19:42:01Z</time></trkpt>
<trkpt lat="54.382133" lon="-2.975883"><ele>228</ele><time>2009-09-15T19:43:49Z</time></trkpt>
<trkpt lat="54.382767" lon="-2.975783"><ele>237</ele><time>2009-09-15T19:44:46Z</time></trkpt>
<trkpt lat="54.383383" lon="-2.975783"><ele>248</ele><time>2009-09-15T19:48:12Z</time></trkpt>
<trkpt lat="54.383150" lon="-2.976550"><ele>233</ele><time>2009-09-15T19:53:04Z</time></trkpt>
<trkpt lat="54.382500" lon="-2.978150"><ele>203</ele><time>2009-09-15T19:53:47Z</time></trkpt>
<trkpt lat="54.382317" lon="-2.979083"><ele>184</ele><time>2009-09-15T19:54:10Z</time></trkpt>
<trkpt lat="54.382767" lon="-2.980150"><ele>173</ele><time>2009-09-15T19:54:40Z</time></trkpt>
<trkpt lat="54.383400" lon="-2.980983"><ele>163</ele><time>2009-09-15T19:55:05Z</time></trkpt>
<trkpt lat="54.383817" lon="-2.982633"><ele>141</ele><time>2009-09-15T19:55:46Z</time></trkpt>
<trkpt lat="54.384000" lon="-2.983933"><ele>125</ele><time>2009-09-15T19:57:02Z</time></trkpt>
<trkpt lat="54.377767" lon="-2.988150"><ele>100</ele><time>2009-09-15T19:58:08Z</time></trkpt>
<trkpt lat="54.376400" lon="-2.988917"><ele>90</ele><time>2009-09-15T19:58:23Z</time></trkpt>
<trkpt lat="54.376100" lon="-2.990200"><ele>85</ele><time>2009-09-15T19:58:35Z</time></trkpt>
<trkpt lat="54.376850" lon="-2.991667"><ele>79</ele><time>2009-09-15T19:59:02Z</time></trkpt>
<trkpt lat="54.377650" lon="-2.993100"><ele>77</ele><time>2009-09-15T19:59:23Z</time></trkpt>
<trkpt lat="54.378533" lon="-2.993250"><ele>79</ele><time>2009-09-15T19:59:42Z</time></trkpt>
<trkpt lat="54.379317" lon="-2.994083"><ele>82</ele><time>2009-09-15T20:00:08Z</time></trkpt>
<trkpt lat="54.380483" lon="-2.994700"><ele>82</ele><time>2009-09-15T20:00:32Z</time></trkpt>
<trkpt lat="54.381750" lon="-2.996183"><ele>80</ele><time>2009-09-15T20:01:05Z</time></trkpt>
<trkpt lat="54.382550" lon="-2.997933"><ele>78</ele><time>2009-09-15T20:01:31Z</time></trkpt>
<trkpt lat="54.382583" lon="-2.999217"><ele>80</ele><time>2009-09-15T20:02:07Z</time></trkpt>
<trkpt lat="54.381950" lon="-3.000583"><ele>80</ele><time>2009-09-15T20:02:52Z</time></trkpt>
<trkpt lat="54.383567" lon="-3.001100"><ele>90</ele><time>2009-09-15T20:04:12Z</time></trkpt>
<trkpt lat="54.384483" lon="-3.000517"><ele>95</ele><time>2009-09-15T20:04:40Z</time></trkpt>
<trkpt lat="54.386067" lon="-3.000383"><ele>102</ele><time>2009-09-15T20:05:32Z</time></trkpt>
<trkpt lat="54.387167" lon="-2.999133"><ele>111</ele><time>2009-09-15T20:06:24Z</time></trkpt>
<trkpt lat="54.388600" lon="-2.996183"><ele>104</ele><time>2009-09-15T20:07:08Z</time></trkpt>
<trkpt lat="54.390100" lon="-2.995250"><ele>98</ele><time>2009-09-15T20:07:32Z</time></trkpt>
<trkpt lat="54.390733" lon="-2.996383"><ele>103</ele><time>2009-09-15T20:07:55Z</time></trkpt>
<trkpt lat="54.392167" lon="-2.996800"><ele>98</ele><time>2009-09-15T20:08:18Z</time></trkpt>
<trkpt lat="54.393667" lon="-2.997550"><ele>106</ele><time>2009-09-15T20:08:46Z</time></trkpt>
<trkpt lat="54.394333" lon="-2.998667"><ele>110</ele><time>2009-09-15T20:09:22Z</time></trkpt>
<trkpt lat="54.395467" lon="-2.998850"><ele>107</ele><time>2009-09-15T20:09:55Z</time></trkpt>
<trkpt lat="54.396633" lon="-2.999050"><ele>116</ele><time>2009-09-15T20:10:35Z</time></trkpt>
<trkpt lat="54.397600" lon="-2.999117"><ele>121</ele><time>2009-09-15T20:10:59Z</time></trkpt>
<trkpt lat="54.399167" lon="-3.000383"><ele>126</ele><time>2009-09-15T20:11:29Z</time></trkpt>
<trkpt lat="54.401117" lon="-3.000483"><ele>128</ele><time>2009-09-15T20:12:01Z</time></trkpt>
<trkpt lat="54.402433" lon="-3.001517"><ele>131</ele><time>2009-09-15T20:12:23Z</time></trkpt>
<trkpt lat="54.402917" lon="-3.001667"><ele>133</ele><time>2009-09-15T20:45:42Z</time></trkpt>
<trkpt lat="54.404833" lon="-3.003600"><ele>118</ele><time>2009-09-15T20:46:09Z</time></trkpt>
<trkpt lat="54.406117" lon="-3.007683"><ele>111</ele><time>2009-09-15T20:46:35Z</time></trkpt>
<trkpt lat="54.408467" lon="-3.007567"><ele>119</ele><time>2009-09-15T20:47:04Z</time></trkpt>
<trkpt lat="54.410417" lon="-3.007133"><ele>126</ele><time>2009-09-15T20:47:44Z</time></trkpt>
<trkpt lat="54.412417" lon="-3.005400"><ele>125</ele><time>2009-09-15T20:48:41Z</time></trkpt>
<trkpt lat="54.414117" lon="-3.003583"><ele>122</ele><time>2009-09-15T20:49:06Z</time></trkpt>
<trkpt lat="54.415317" lon="-3.002617"><ele>121</ele><time>2009-09-15T20:49:27Z</time></trkpt>
<trkpt lat="54.416700" lon="-3.002300"><ele>110</ele><time>2009-09-15T20:49:51Z</time></trkpt>
<trkpt lat="54.418250" lon="-3.000467"><ele>102</ele><time>2009-09-15T20:50:35Z</time></trkpt>
<trkpt lat="54.419983" lon="-2.998017"><ele>90</ele><time>2009-09-15T20:50:56Z</time></trkpt>
<trkpt lat="54.421333" lon="-2.995167"><ele>57</ele><time>2009-09-15T20:51:19Z</time></trkpt>
<trkpt lat="54.422017" lon="-2.990817"><ele>54</ele><time>2009-09-15T20:51:56Z</time></trkpt>
<trkpt lat="54.421133" lon="-2.986233"><ele>44</ele><time>2009-09-15T20:52:25Z</time></trkpt>
<trkpt lat="54.421700" lon="-2.983917"><ele>46</ele><time>2009-09-15T20:52:48Z</time></trkpt>
<trkpt lat="54.421983" lon="-2.981300"><ele>51</ele><time>2009-09-15T20:53:20Z</time></trkpt>
<trkpt lat="54.422867" lon="-2.978167"><ele>62</ele><time>2009-09-15T20:53:55Z</time></trkpt>
<trkpt lat="54.424133" lon="-2.973550"><ele>54</ele><time>2009-09-15T20:54:32Z</time></trkpt>
<trkpt lat="54.425267" lon="-2.971450"><ele>46</ele><time>2009-09-15T20:54:55Z</time></trkpt>
<trkpt lat="54.426500" lon="-2.969883"><ele>45</ele><time>2009-09-15T20:55:15Z</time></trkpt>
<trkpt lat="54.427167" lon="-2.968617"><ele>47</ele><time>2009-09-15T20:55:42Z</time></trkpt>
<trkpt lat="54.428400" lon="-2.966367"><ele>48</ele><time>2009-09-15T20:56:11Z</time></trkpt>
<trkpt lat="54.430050" lon="-2.964633"><ele>51</ele><time>2009-09-15T20:56:48Z</time></trkpt>
<trkpt lat="54.432533" lon="-2.963267"><ele>58</ele><time>2009-09-15T20:57:55Z</time></trkpt>
<trkpt lat="54.433600" lon="-2.963450"><ele>60</ele><time>2009-09-15T20:58:26Z</time></trkpt>
<trkpt lat="54.433850" lon="-2.964167"><ele>59</ele><time>2009-09-15T21:00:31Z</time></trkpt>
</trkseg>
</trk>

</gpx>
————————————————————————

Advertisements

Tags:

Leave a Reply

Fill in your details below or click an icon to log in:

WordPress.com Logo

You are commenting using your WordPress.com account. Log Out / Change )

Twitter picture

You are commenting using your Twitter account. Log Out / Change )

Facebook photo

You are commenting using your Facebook account. Log Out / Change )

Google+ photo

You are commenting using your Google+ account. Log Out / Change )

Connecting to %s


%d bloggers like this: